Time;durP1;ratioP1;P1;durP2;ratioP2;P2;SDS_P1;SDS_P2;PMS_P1;PMS_P2;Temp;Humidity;BMP_temperature;BMP_pressure;BME280_temperature;BME280_humidity;BME280_pressure;Samples;Min_cycle;Max_cycle;Signal;HPM_P1;HPM_P2
2021/05/02 00:00:35;;;;;;;55.20;35.72;;;7.10;99.90;;;;;;4994780;28;20060;-72
2021/05/02 00:03:04;;;;;;;56.83;35.80;;;7.20;99.90;;;;;;5001846;28;20116;-71
2021/05/02 00:05:32;;;;;;;55.45;36.38;;;7.20;99.90;;;;;;5012259;28;20526;-72
2021/05/02 00:07:59;;;;;;;59.17;36.72;;;7.30;99.90;;;;;;4994548;28;20059;-72
2021/05/02 00:10:27;;;;;;;58.75;37.95;;;7.20;99.90;;;;;;5012297;28;20109;-72
2021/05/02 00:12:54;;;;;;;59.83;36.90;;;7.30;99.90;;;;;;5011310;28;20033;-71
2021/05/02 00:15:23;;;;;;;56.42;36.85;;;7.30;99.90;;;;;;5011750;28;20026;-72
2021/05/02 00:17:51;;;;;;;59.85;38.33;;;7.20;99.90;;;;;;5011922;28;20025;-72
2021/05/02 00:20:19;;;;;;;57.20;37.25;;;7.30;99.90;;;;;;5012084;28;20373;-73
2021/05/02 00:22:48;;;;;;;58.70;36.47;;;7.20;99.90;;;;;;5011421;28;20496;-71
2021/05/02 00:25:16;;;;;;;61.53;38.22;;;7.20;99.90;;;;;;5011771;28;20472;-71
2021/05/02 00:27:42;;;;;;;57.03;37.08;;;7.30;99.90;;;;;;4994643;28;20026;-73
2021/05/02 00:30:10;;;;;;;58.20;36.38;;;7.30;99.90;;;;;;5011670;28;20034;-71
2021/05/02 00:32:38;;;;;;;56.88;38.00;;;7.30;99.90;;;;;;4994579;28;20026;-72
2021/05/02 00:35:04;;;;;;;58.17;37.33;;;7.40;99.90;;;;;;5011494;28;20477;-72
2021/05/02 00:37:30;;;;;;;51.58;36.42;;;7.20;99.90;;;;;;5011851;28;20029;-72
2021/05/02 00:39:55;;;;;;;54.42;36.78;;;7.10;99.90;;;;;;5011618;28;20022;-71
2021/05/02 00:42:24;;;;;;;57.97;38.08;;;7.20;99.90;;;;;;5011732;28;20113;-71
2021/05/02 00:45:02;;;;;;;55.90;36.28;;;7.10;99.90;;;;;;5010745;28;20022;-71
2021/05/02 00:47:35;;;;;;;57.38;38.40;;;7.00;99.90;;;;;;5011734;28;20495;-72
2021/05/02 00:50:10;;;;;;;61.20;37.80;;;7.00;99.90;;;;;;5011715;28;20498;-71
2021/05/02 00:53:12;;;;;;;58.42;38.63;;;7.20;99.90;;;;;;5011414;28;20101;-72
2021/05/02 00:55:46;;;;;;;59.65;38.88;;;7.20;99.90;;;;;;5011615;28;20029;-71
2021/05/02 00:58:44;;;;;;;58.10;38.22;;;7.10;99.90;;;;;;5011882;28;20096;-72
2021/05/02 01:01:18;;;;;;;59.33;37.78;;;7.00;99.90;;;;;;5016323;28;20049;-72
2021/05/02 01:03:47;;;;;;;68.45;40.35;;;6.90;99.90;;;;;;5011012;28;20080;-72
2021/05/02 01:06:15;;;;;;;73.18;44.72;;;7.00;99.90;;;;;;5011274;28;20080;-72
2021/05/02 01:08:42;;;;;;;71.78;43.97;;;7.20;99.90;;;;;;5012737;28;20044;-73
2021/05/02 01:11:11;;;;;;;68.93;43.08;;;7.20;99.90;;;;;;5015686;28;20030;-72
2021/05/02 01:13:43;;;;;;;72.03;42.10;;;7.10;99.90;;;;;;5014729;28;20036;-72
2021/05/02 01:16:12;;;;;;;69.70;43.72;;;7.10;99.90;;;;;;5015258;28;20014;-71
2021/05/02 01:18:39;;;;;;;72.70;42.90;;;7.20;99.90;;;;;;5016030;28;20430;-72
2021/05/02 01:21:05;;;;;;;66.30;42.65;;;7.20;99.90;;;;;;5016455;28;20097;-71
2021/05/02 01:23:32;;;;;;;73.60;43.03;;;7.10;99.90;;;;;;5015578;28;20029;-72
2021/05/02 01:26:00;;;;;;;60.20;39.35;;;7.20;99.90;;;;;;5015495;28;20433;-71
2021/05/02 01:28:27;;;;;;;62.40;39.28;;;6.90;99.90;;;;;;5015375;28;20550;-72
2021/05/02 01:30:54;;;;;;;75.28;42.42;;;6.90;99.90;;;;;;5015278;28;20046;-71
2021/05/02 01:33:20;;;;;;;65.45;40.85;;;6.90;99.90;;;;;;5014919;28;20025;-71
2021/05/02 01:35:46;;;;;;;68.07;43.17;;;6.80;99.90;;;;;;5015219;28;20022;-72
2021/05/02 01:38:13;;;;;;;67.55;42.60;;;6.90;99.90;;;;;;5015171;28;20022;-73
2021/05/02 01:40:39;;;;;;;69.07;42.90;;;6.90;99.90;;;;;;5014815;28;20073;-72
2021/05/02 01:43:05;;;;;;;61.65;40.05;;;7.00;99.90;;;;;;5014218;28;20030;-71
2021/05/02 01:45:31;;;;;;;63.10;39.45;;;7.00;99.90;;;;;;5014618;28;20512;-72
2021/05/02 01:48:02;;;;;;;56.65;36.30;;;6.90;99.90;;;;;;5014863;28;20048;-72
2021/05/02 01:50:30;;;;;;;51.25;35.20;;;6.80;99.90;;;;;;5014857;28;20555;-71
2021/05/02 01:52:55;;;;;;;55.60;35.00;;;6.80;99.90;;;;;;5013883;28;20110;-71
2021/05/02 01:55:22;;;;;;;57.10;37.55;;;6.70;99.90;;;;;;5014481;28;20478;-72
2021/05/02 01:57:50;;;;;;;50.85;35.42;;;6.90;99.90;;;;;;5014824;28;20033;-72
2021/05/02 02:00:29;;;;;;;44.22;31.58;;;6.90;99.90;;;;;;4996698;28;20026;-72
2021/05/02 02:03:00;;;;;;;44.63;31.75;;;6.80;99.90;;;;;;5013745;28;20480;-71
2021/05/02 02:05:26;;;;;;;43.42;30.23;;;6.80;99.90;;;;;;5014350;28;20025;-76
2021/05/02 02:07:52;;;;;;;45.28;32.25;;;6.80;99.90;;;;;;5014715;28;20503;-72
2021/05/02 02:10:20;;;;;;;39.03;29.77;;;6.90;99.90;;;;;;5014640;28;20036;-72
2021/05/02 02:12:46;;;;;;;41.13;31.15;;;6.70;99.90;;;;;;5014687;28;20030;-72
2021/05/02 02:15:13;;;;;;;45.30;31.13;;;6.60;99.90;;;;;;4996078;28;20026;-72
2021/05/02 02:17:39;;;;;;;38.88;29.90;;;6.70;99.90;;;;;;4996768;28;20076;-72
2021/05/02 02:20:06;;;;;;;40.25;28.40;;;6.50;99.90;;;;;;5013370;28;20026;-72
2021/05/02 02:22:40;;;;;;;41.10;30.75;;;6.60;99.90;;;;;;5014155;28;20476;-72
2021/05/02 02:25:08;;;;;;;42.25;30.60;;;6.60;99.90;;;;;;5017273;28;20033;-70
2021/05/02 02:27:34;;;;;;;42.75;30.60;;;6.50;99.90;;;;;;5035046;28;20036;-71
2021/05/02 02:30:05;;;;;;;42.60;30.83;;;6.60;99.90;;;;;;5035810;28;20022;-71
2021/05/02 02:32:34;;;;;;;42.78;30.30;;;6.60;99.90;;;;;;5034015;28;20004;-72
2021/05/02 02:35:04;;;;;;;36.95;29.50;;;6.60;99.90;;;;;;5034014;28;20163;-72
2021/05/02 02:37:30;;;;;;;43.05;30.42;;;6.50;99.90;;;;;;5023257;28;20029;-71
2021/05/02 02:40:01;;;;;;;39.13;30.13;;;6.50;99.90;;;;;;5014570;28;20034;-72
2021/05/02 02:42:29;;;;;;;38.92;30.17;;;6.60;99.90;;;;;;4996366;28;20026;-73
2021/05/02 02:44:56;;;;;;;38.33;28.20;;;6.60;99.90;;;;;;5013179;28;20026;-72
2021/05/02 02:47:25;;;;;;;36.95;28.38;;;6.50;99.90;;;;;;5013755;28;20028;-72
2021/05/02 02:49:57;;;;;;;41.28;30.95;;;6.40;99.90;;;;;;5014432;28;20026;-72
2021/05/02 02:52:24;;;;;;;;;;;6.50;99.90;;;;;;5014575;28;20033;-72
2021/05/02 02:55:03;;;;;;;36.47;26.40;;;6.30;99.90;;;;;;5013231;28;20382;-73
2021/05/02 02:57:31;;;;;;;41.97;29.35;;;6.20;99.90;;;;;;5013785;28;20460;-72
2021/05/02 02:59:58;;;;;;;39.00;28.52;;;6.30;99.90;;;;;;5012891;28;20076;-72
2021/05/02 03:02:25;;;;;;;38.70;29.90;;;6.40;99.90;;;;;;5013325;28;20337;-72
2021/05/02 03:04:54;;;;;;;38.42;28.92;;;6.30;99.90;;;;;;5012539;28;20050;-72
2021/05/02 03:07:23;;;;;;;39.35;28.27;;;6.10;99.90;;;;;;5011436;28;20061;-72
2021/05/02 03:09:50;;;;;;;39.88;29.35;;;6.10;99.90;;;;;;5035875;23;20056;-72
2021/05/02 03:12:20;;;;;;;37.92;25.85;;;6.10;99.90;;;;;;5033283;28;20021;-71
2021/05/02 03:14:51;;;;;;;35.78;26.88;;;6.00;99.90;;;;;;5031755;28;20061;-72
2021/05/02 03:17:31;;;;;;;36.03;28.33;;;6.10;99.90;;;;;;5015239;28;20024;-72
2021/05/02 03:20:03;;;;;;;38.03;28.10;;;6.10;99.90;;;;;;5033237;28;20036;-72
2021/05/02 03:22:41;;;;;;;44.55;31.80;;;6.10;99.90;;;;;;5033809;28;20018;-72
2021/05/02 03:25:10;;;;;;;38.33;30.15;;;6.10;99.90;;;;;;5033118;28;20029;-72
2021/05/02 03:27:57;;;;;;;37.85;29.73;;;6.00;99.90;;;;;;5033656;28;20119;-71
2021/05/02 03:30:24;;;;;;;39.63;28.23;;;6.00;99.90;;;;;;5015999;28;20029;-73
2021/05/02 03:32:53;;;;;;;41.45;29.92;;;5.90;99.90;;;;;;5032717;28;20087;-71
2021/05/02 03:35:30;;;;;;;44.97;32.70;;;6.00;99.90;;;;;;5033838;28;20075;-71
2021/05/02 03:38:17;;;;;;;42.78;32.58;;;6.10;99.90;;;;;;5033714;28;20017;-70
2021/05/02 03:40:44;;;;;;;43.72;32.25;;;6.20;99.90;;;;;;5032894;28;20048;-70
2021/05/02 03:43:10;;;;;;;53.92;37.58;;;6.30;99.90;;;;;;5034797;28;20097;-70
2021/05/02 03:45:36;;;;;;;52.83;36.88;;;6.20;99.90;;;;;;5033486;28;20053;-71
2021/05/02 03:48:02;;;;;;;46.10;33.05;;;6.30;99.90;;;;;;5015533;28;20057;-70
2021/05/02 03:50:28;;;;;;;48.42;35.30;;;6.30;99.90;;;;;;5032912;28;20100;-71
2021/05/02 03:52:53;;;;;;;49.40;36.17;;;6.40;99.90;;;;;;5031763;28;20025;-71
2021/05/02 03:55:19;;;;;;;43.40;33.50;;;6.40;99.90;;;;;;5015087;28;20038;-70
2021/05/02 03:57:44;;;;;;;45.55;33.47;;;6.30;99.90;;;;;;5033373;28;20029;-71
2021/05/02 04:00:11;;;;;;;43.92;33.47;;;6.20;99.90;;;;;;5015975;28;20025;-71
2021/05/02 04:02:36;;;;;;;45.75;33.55;;;6.20;99.90;;;;;;5033743;28;20031;-71
2021/05/02 04:05:03;;;;;;;42.80;32.65;;;6.10;99.90;;;;;;5033489;28;20022;-72
2021/05/02 04:07:28;;;;;;;44.40;33.60;;;6.00;99.90;;;;;;5033102;28;20030;-71
2021/05/02 04:09:54;;;;;;;46.08;33.55;;;5.90;99.90;;;;;;5032476;28;20029;-72
2021/05/02 04:12:19;;;;;;;40.33;33.00;;;5.90;99.90;;;;;;5032845;28;20051;-72
2021/05/02 04:14:45;;;;;;;42.33;32.65;;;6.00;99.90;;;;;;5031261;28;20025;-71
2021/05/02 04:17:12;;;;;;;44.38;34.63;;;6.00;99.90;;;;;;5033352;28;20525;-74
2021/05/02 04:19:43;;;;;;;45.38;34.03;;;6.10;99.90;;;;;;5015094;28;20083;-73
2021/05/02 04:22:12;;;;;;;44.90;34.90;;;6.20;99.90;;;;;;5033789;28;20036;-72
2021/05/02 04:24:38;;;;;;;44.72;35.33;;;6.20;99.90;;;;;;5032808;28;20108;-73
2021/05/02 04:27:04;;;;;;;50.25;39.00;;;6.10;99.90;;;;;;5033274;28;20068;-74
2021/05/02 04:29:31;;;;;;;47.67;34.97;;;6.20;99.90;;;;;;5032870;28;20398;-72
2021/05/02 04:31:57;;;;;;;48.53;37.05;;;6.30;99.90;;;;;;5032352;28;20384;-75
2021/05/02 04:34:24;;;;;;;46.63;35.50;;;6.30;99.90;;;;;;5030862;28;20041;-72
2021/05/02 04:36:51;;;;;;;45.03;35.08;;;6.30;99.90;;;;;;5032220;28;20032;-70
2021/05/02 04:39:18;;;;;;;41.38;33.42;;;6.30;99.90;;;;;;5031584;28;20014;-71
2021/05/02 04:41:45;;;;;;;46.45;34.92;;;6.30;99.90;;;;;;5014259;28;20026;-72
2021/05/02 04:44:10;;;;;;;41.13;31.80;;;6.40;99.90;;;;;;5029080;28;20075;-71
2021/05/02 04:46:40;;;;;;;46.55;36.42;;;6.30;99.90;;;;;;5031789;28;20093;-69
2021/05/02 04:49:07;;;;;;;44.15;34.40;;;6.30;99.90;;;;;;5032185;28;20541;-73
2021/05/02 04:51:33;;;;;;;39.42;32.00;;;6.40;99.90;;;;;;5014839;28;20076;-73
2021/05/02 04:53:59;;;;;;;45.67;32.70;;;6.20;99.90;;;;;;5031371;28;20021;-73
2021/05/02 04:56:24;;;;;;;39.85;31.83;;;6.20;99.90;;;;;;5031802;28;20361;-72
2021/05/02 04:58:50;;;;;;;39.63;30.65;;;6.30;99.90;;;;;;5031800;28;20022;-72
2021/05/02 05:01:15;;;;;;;44.25;33.70;;;6.20;99.90;;;;;;5030914;28;20383;-74
2021/05/02 05:03:43;;;;;;;46.22;33.97;;;6.30;99.90;;;;;;5031573;28;20026;-72
2021/05/02 05:06:09;;;;;;;42.22;33.28;;;6.40;99.90;;;;;;5030678;28;20029;-72
2021/05/02 05:08:34;;;;;;;42.70;34.80;;;6.50;99.90;;;;;;5031376;28;20025;-75
2021/05/02 05:11:00;;;;;;;43.20;31.33;;;6.40;99.90;;;;;;5031582;28;20585;-74
2021/05/02 05:13:26;;;;;;;41.42;31.98;;;6.40;99.90;;;;;;5030475;28;20049;-72
2021/05/02 05:15:55;;;;;;;39.60;31.70;;;6.40;99.90;;;;;;5032682;28;20025;-73
2021/05/02 05:18:21;;;;;;;39.55;31.00;;;6.50;99.90;;;;;;5031399;28;20037;-72
2021/05/02 05:20:47;;;;;;;38.88;31.88;;;6.50;99.90;;;;;;5030460;28;20017;-72
2021/05/02 05:23:13;;;;;;;43.45;31.25;;;6.60;99.90;;;;;;5030908;28;20033;-73
2021/05/02 05:25:39;;;;;;;41.28;30.25;;;6.60;99.90;;;;;;5031342;28;20034;-71
2021/05/02 05:28:04;;;;;;;35.92;28.75;;;6.70;99.90;;;;;;5011631;28;20479;-71
2021/05/02 05:30:30;;;;;;;38.20;29.30;;;6.80;99.90;;;;;;5006271;28;20033;-73
2021/05/02 05:33:07;;;;;;;38.63;30.08;;;6.70;99.90;;;;;;5009249;28;20026;-72
2021/05/02 05:35:34;;;;;;;32.70;27.65;;;6.80;99.90;;;;;;4991216;28;20113;-73
2021/05/02 05:38:00;;;;;;;34.88;28.70;;;6.90;99.90;;;;;;5009776;28;20153;-73
2021/05/02 05:40:27;;;;;;;35.05;28.80;;;6.70;99.90;;;;;;5010811;28;20845;-75
2021/05/02 05:42:54;;;;;;;38.80;28.40;;;6.80;99.90;;;;;;5009680;28;20018;-72
2021/05/02 05:45:20;;;;;;;31.63;26.42;;;6.80;99.90;;;;;;5000612;28;20018;-72
2021/05/02 05:47:47;;;;;;;37.33;27.45;;;6.90;99.90;;;;;;5018327;28;20049;-74
2021/05/02 05:50:14;;;;;;;32.92;25.33;;;6.80;99.90;;;;;;5015605;28;20028;-70
2021/05/02 05:52:42;;;;;;;31.48;25.95;;;6.80;99.90;;;;;;5027736;28;20427;-72
2021/05/02 05:55:09;;;;;;;32.13;26.58;;;6.80;99.90;;;;;;5030528;28;20037;-71
2021/05/02 05:57:34;;;;;;;34.58;26.95;;;6.80;99.90;;;;;;5033038;28;20037;-72
2021/05/02 06:00:00;;;;;;;32.95;27.08;;;6.70;99.90;;;;;;5020302;28;20490;-72
2021/05/02 06:02:26;;;;;;;33.58;26.48;;;6.80;99.90;;;;;;5036180;28;20732;-71
2021/05/02 06:04:52;;;;;;;33.22;27.27;;;6.90;99.90;;;;;;5014896;28;20383;-71
2021/05/02 06:07:18;;;;;;;32.67;26.30;;;7.00;99.90;;;;;;5033011;28;20025;-71
2021/05/02 06:09:43;;;;;;;33.35;26.73;;;7.10;99.90;;;;;;5032532;28;20842;-73
2021/05/02 06:12:09;;;;;;;31.10;26.42;;;7.20;99.90;;;;;;5015330;28;20073;-72
2021/05/02 06:14:35;;;;;;;33.75;23.90;;;7.10;99.90;;;;;;4994374;28;20566;-71
2021/05/02 06:17:00;;;;;;;31.58;25.95;;;6.80;99.90;;;;;;5012687;28;20030;-73
2021/05/02 06:19:27;;;;;;;31.65;25.45;;;6.80;99.90;;;;;;5012855;28;20033;-72
2021/05/02 06:21:53;;;;;;;30.83;25.52;;;6.70;99.90;;;;;;4994901;28;20089;-72
2021/05/02 06:24:19;;;;;;;33.08;26.42;;;6.70;99.90;;;;;;5017821;28;20029;-71
2021/05/02 06:26:45;;;;;;;31.67;26.60;;;6.60;99.90;;;;;;5014909;28;20091;-72
2021/05/02 06:29:10;;;;;;;35.70;26.40;;;6.70;99.90;;;;;;5012839;28;20084;-72
2021/05/02 06:31:36;;;;;;;32.55;26.52;;;6.60;99.90;;;;;;5012855;28;20458;-73
2021/05/02 06:34:02;;;;;;;33.28;28.13;;;6.70;99.90;;;;;;5012161;28;20464;-71
2021/05/02 06:36:27;;;;;;;35.45;29.15;;;6.70;99.90;;;;;;4994832;28;20018;-71
2021/05/02 06:38:53;;;;;;;33.58;27.27;;;6.90;99.90;;;;;;5013225;28;20018;-73
2021/05/02 06:41:19;;;;;;;36.88;26.52;;;7.00;99.90;;;;;;5020795;28;20032;-74
2021/05/02 06:43:44;;;;;;;30.50;25.95;;;6.80;99.90;;;;;;5031694;28;20052;-73
2021/05/02 06:46:26;;;;;;;32.22;25.90;;;7.00;99.90;;;;;;5032294;28;20029;-72
2021/05/02 06:48:54;;;;;;;31.75;24.33;;;7.40;99.90;;;;;;5014328;28;20041;-72
2021/05/02 06:51:19;;;;;;;29.65;23.40;;;7.60;99.90;;;;;;5031969;28;20036;-72
2021/05/02 06:53:45;;;;;;;30.23;24.17;;;7.80;99.90;;;;;;5030837;28;20030;-73
2021/05/02 06:56:11;;;;;;;29.35;24.08;;;7.70;99.90;;;;;;5024193;28;20022;-71
2021/05/02 06:58:36;;;;;;;32.45;25.25;;;7.50;99.90;;;;;;5011975;28;20563;-72
2021/05/02 07:01:02;;;;;;;29.65;23.33;;;7.70;99.90;;;;;;5011873;28;20840;-72
2021/05/02 07:03:27;;;;;;;29.95;24.48;;;7.80;99.90;;;;;;4997701;28;20696;-73
2021/05/02 07:05:53;;;;;;;28.70;23.63;;;7.90;99.90;;;;;;5032712;28;20104;-70
2021/05/02 07:08:19;;;;;;;31.30;23.25;;;7.90;99.90;;;;;;5032837;28;20025;-72
2021/05/02 07:10:45;;;;;;;28.10;23.08;;;7.70;99.90;;;;;;5014369;28;20091;-73
2021/05/02 07:13:11;;;;;;;30.02;23.55;;;7.60;99.90;;;;;;5030483;28;20130;-71
2021/05/02 07:15:38;;;;;;;29.00;20.88;;;7.70;99.90;;;;;;5031317;28;20022;-73
2021/05/02 07:18:04;;;;;;;28.95;21.50;;;9.20;99.90;;;;;;5013266;28;20083;-73
2021/05/02 07:20:30;;;;;;;26.60;21.70;;;9.00;99.90;;;;;;5030353;28;20017;-72
2021/05/02 07:22:55;;;;;;;23.65;19.77;;;9.60;99.90;;;;;;5030269;28;20106;-72
2021/05/02 07:25:24;;;;;;;27.38;21.48;;;9.40;99.90;;;;;;5011234;28;20026;-72
2021/05/02 07:27:53;;;;;;;23.77;20.70;;;9.10;99.90;;;;;;5011344;28;20105;-73
2021/05/02 07:30:21;;;;;;;25.13;20.35;;;9.00;99.90;;;;;;5010694;28;20018;-72
2021/05/02 07:32:47;;;;;;;21.67;19.27;;;9.00;99.90;;;;;;5010291;28;20018;-69
2021/05/02 07:35:13;;;;;;;24.08;20.48;;;9.00;99.90;;;;;;5009769;28;20057;-71
2021/05/02 07:37:39;;;;;;;25.17;19.58;;;9.10;99.90;;;;;;4993064;28;20472;-73
2021/05/02 07:40:07;;;;;;;21.50;18.88;;;9.10;99.90;;;;;;5014706;28;20037;-74
2021/05/02 07:42:32;;;;;;;23.77;20.75;;;8.90;99.90;;;;;;5014601;28;20022;-72
2021/05/02 07:44:58;;;;;;;24.85;19.23;;;9.20;99.90;;;;;;4992988;28;20116;-73
2021/05/02 07:47:24;;;;;;;23.45;18.33;;;8.70;99.90;;;;;;5011465;28;20033;-73
2021/05/02 07:49:50;;;;;;;23.85;19.70;;;8.80;99.90;;;;;;5012551;28;20034;-72
2021/05/02 07:52:16;;;;;;;23.75;18.90;;;8.80;99.90;;;;;;5038884;28;20048;-71
2021/05/02 07:54:43;;;;;;;22.02;17.90;;;8.90;99.90;;;;;;5038396;28;20475;-71
2021/05/02 07:57:09;;;;;;;21.52;18.25;;;9.00;99.90;;;;;;5016925;28;20108;-74
2021/05/02 07:59:38;;;;;;;20.65;18.45;;;9.10;99.90;;;;;;5016574;28;20056;-73
2021/05/02 08:02:04;;;;;;;23.65;18.42;;;8.60;99.90;;;;;;5014732;28;20071;-75
2021/05/02 08:04:29;;;;;;;20.75;18.15;;;9.00;99.90;;;;;;5031616;28;20026;-73
2021/05/02 08:06:55;;;;;;;19.95;16.80;;;9.30;99.90;;;;;;5017340;28;20033;-73
2021/05/02 08:09:21;;;;;;;21.08;18.38;;;10.30;99.90;;;;;;5032050;28;20057;-76
2021/05/02 08:11:47;;;;;;;19.20;16.63;;;10.40;99.90;;;;;;5031799;28;20030;-75
2021/05/02 08:14:13;;;;;;;22.35;17.70;;;10.10;99.90;;;;;;5029675;28;20030;-72
2021/05/02 08:16:40;;;;;;;19.95;17.70;;;9.80;99.90;;;;;;5019569;28;20029;-73
2021/05/02 08:19:06;;;;;;;24.30;19.08;;;9.60;99.90;;;;;;5007826;28;20495;-74
2021/05/02 08:21:32;;;;;;;20.92;18.65;;;9.50;99.90;;;;;;5006102;28;20022;-74
2021/05/02 08:23:57;;;;;;;20.73;18.33;;;9.50;99.90;;;;;;4997758;28;20775;-74
2021/05/02 08:26:23;;;;;;;23.42;19.30;;;9.40;99.90;;;;;;5003341;28;20034;-72
2021/05/02 08:28:49;;;;;;;21.58;18.92;;;9.10;99.90;;;;;;4992803;28;20041;-73
2021/05/02 08:31:15;;;;;;;25.98;21.25;;;8.70;99.90;;;;;;4992665;28;20034;-73
2021/05/02 08:33:42;;;;;;;33.40;24.08;;;8.90;99.90;;;;;;5008809;28;20041;-75
2021/05/02 08:36:08;;;;;;;30.63;23.55;;;9.30;99.90;;;;;;5009724;28;20108;-72
2021/05/02 08:38:34;;;;;;;26.02;19.95;;;9.80;99.90;;;;;;5009786;28;20072;-71
2021/05/02 08:41:06;;;;;;;23.75;18.20;;;10.00;99.90;;;;;;5009489;28;20032;-71
2021/05/02 08:43:33;;;;;;;20.40;17.35;;;9.80;99.90;;;;;;5009406;28;20022;-73
2021/05/02 08:45:59;;;;;;;22.38;18.33;;;9.40;99.90;;;;;;5009552;28;20041;-74
2021/05/02 08:48:25;;;;;;;20.70;18.60;;;9.60;99.90;;;;;;5010146;28;20022;-73
2021/05/02 08:50:55;;;;;;;19.58;17.48;;;9.60;99.90;;;;;;4992246;28;20460;-74
2021/05/02 08:53:21;;;;;;;26.92;18.83;;;9.30;99.90;;;;;;4959052;28;20045;-72
2021/05/02 08:55:47;;;;;;;19.85;16.83;;;9.20;99.90;;;;;;5009566;28;20033;-74
2021/05/02 08:58:21;;;;;;;20.15;17.98;;;9.10;99.90;;;;;;4992506;28;20026;-73
2021/05/02 09:00:48;;;;;;;21.95;19.55;;;9.10;99.90;;;;;;4976743;28;20022;-73
2021/05/02 09:03:14;;;;;;;19.70;17.60;;;9.40;99.90;;;;;;5010295;28;20522;-74
2021/05/02 09:05:48;;;;;;;20.80;17.98;;;9.60;99.90;;;;;;5009867;28;20038;-72
2021/05/02 09:08:35;;;;;;;19.02;15.68;;;9.90;99.90;;;;;;5010489;28;20037;-73
2021/05/02 09:11:01;;;;;;;18.60;14.80;;;10.30;99.90;;;;;;5009810;28;20045;-72
2021/05/02 09:13:28;;;;;;;19.48;16.27;;;10.70;99.90;;;;;;4991241;28;20029;-71
2021/05/02 09:16:03;;;;;;;16.48;14.75;;;11.00;99.90;;;;;;5009422;28;20484;-73
2021/05/02 09:18:37;;;;;;;17.98;15.35;;;11.30;99.90;;;;;;5005013;28;20076;-73
2021/05/02 09:21:27;;;;;;;15.38;13.48;;;11.70;99.90;;;;;;5014797;28;20021;-72
2021/05/02 09:23:54;;;;;;;15.35;13.68;;;11.40;99.90;;;;;;4994540;28;20033;-73
2021/05/02 09:26:25;;;;;;;16.65;13.38;;;11.10;99.90;;;;;;5060528;22;20024;-71
2021/05/02 09:28:56;;;;;;;15.85;13.43;;;11.10;99.90;;;;;;5023703;28;20033;-72
2021/05/02 09:31:27;;;;;;;19.23;13.90;;;10.60;99.90;;;;;;5032524;28;20045;-71
2021/05/02 09:34:09;;;;;;;16.75;14.90;;;10.70;99.90;;;;;;5016994;28;20507;-72
2021/05/02 09:36:55;;;;;;;20.90;15.48;;;11.00;99.90;;;;;;5035154;28;20030;-71
2021/05/02 09:39:40;;;;;;;16.17;14.38;;;10.80;99.90;;;;;;5035257;28;20022;-72
2021/05/02 09:42:22;;;;;;;15.98;14.38;;;10.70;99.90;;;;;;5035010;28;20387;-72
2021/05/02 09:44:52;;;;;;;;;;;11.00;99.90;;;;;;5034941;28;20376;-72
2021/05/02 09:47:19;;;;;;;16.55;14.25;;;11.00;99.90;;;;;;5034863;28;19905;-72
2021/05/02 09:50:05;;;;;;;17.52;15.60;;;11.00;99.90;;;;;;5017549;28;20034;-72
2021/05/02 09:52:51;;;;;;;20.85;17.30;;;10.80;99.90;;;;;;5035009;28;20116;-71
2021/05/02 09:55:17;;;;;;;20.33;17.45;;;10.20;99.90;;;;;;5016885;28;20045;-72
2021/05/02 09:58:18;;;;;;;18.30;16.13;;;10.00;99.90;;;;;;5035096;28;20442;-73
2021/05/02 10:00:53;;;;;;;18.58;16.00;;;10.60;99.90;;;;;;5026835;28;20029;-72
2021/05/02 10:03:29;;;;;;;20.02;16.63;;;11.10;99.90;;;;;;5034031;28;20483;-71
2021/05/02 10:06:00;;;;;;;18.17;14.45;;;11.40;99.90;;;;;;5034357;28;20104;-72
2021/05/02 10:08:34;;;;;;;19.75;14.73;;;11.40;99.90;;;;;;5034521;28;20026;-72
2021/05/02 10:11:08;;;;;;;15.40;13.18;;;11.70;99.90;;;;;;5016561;28;20411;-72
2021/05/02 10:13:35;;;;;;;15.57;12.88;;;12.20;99.90;;;;;;5033743;28;20029;-71
2021/05/02 10:16:02;;;;;;;15.65;13.18;;;12.90;99.90;;;;;;5016867;28;20109;-71
2021/05/02 10:18:29;;;;;;;14.57;12.85;;;13.30;99.90;;;;;;5034151;28;20033;-72
2021/05/02 10:20:54;;;;;;;16.88;13.98;;;12.90;99.90;;;;;;5034189;28;20042;-73
2021/05/02 10:23:21;;;;;;;18.42;13.65;;;12.90;99.90;;;;;;5033787;28;20034;-73
2021/05/02 10:25:50;;;;;;;13.75;12.30;;;13.30;99.90;;;;;;5016728;28;20037;-73
2021/05/02 10:28:28;;;;;;;16.55;13.10;;;13.60;99.90;;;;;;5022889;28;20044;-74
2021/05/02 10:30:57;;;;;;;14.30;12.90;;;14.20;99.40;;;;;;5033421;28;20043;-74
2021/05/02 10:33:35;;;;;;;15.27;13.30;;;13.00;99.80;;;;;;5032824;28;20048;-72
2021/05/02 10:36:09;;;;;;;14.73;12.73;;;12.40;99.90;;;;;;5015193;28;20643;-74
2021/05/02 10:38:58;;;;;;;18.77;13.10;;;12.90;99.90;;;;;;5043920;28;20021;-73
2021/05/02 10:41:24;;;;;;;14.00;12.70;;;13.60;99.90;;;;;;5051597;28;20053;-73
2021/05/02 10:43:50;;;;;;;13.98;12.57;;;13.50;99.80;;;;;;5051434;28;20048;-72
2021/05/02 10:46:40;;;;;;;15.45;12.52;;;13.10;99.90;;;;;;5039366;28;20136;-73
2021/05/02 10:49:06;;;;;;;18.98;14.10;;;13.10;99.90;;;;;;5032342;28;20544;-72
2021/05/02 10:51:38;;;;;;;14.85;13.18;;;12.80;99.90;;;;;;5031925;28;20025;-71
2021/05/02 10:54:10;;;;;;;14.75;12.82;;;12.20;99.90;;;;;;5031670;28;20498;-71
2021/05/02 10:56:53;;;;;;;15.45;13.95;;;11.80;99.90;;;;;;5014570;28;20518;-73
2021/05/02 10:59:22;;;;;;;15.55;13.60;;;11.80;99.90;;;;;;5031239;28;20022;-76
2021/05/02 11:01:48;;;;;;;17.98;13.90;;;10.60;99.90;;;;;;5027353;28;20041;-75
2021/05/02 11:04:15;;;;;;;16.85;14.98;;;10.10;99.90;;;;;;5024441;28;20122;-76
2021/05/02 11:06:41;;;;;;;17.50;14.02;;;10.30;99.90;;;;;;5001444;28;20017;-76
2021/05/02 11:09:16;;;;;;;14.73;13.02;;;10.70;99.90;;;;;;5021483;28;20696;-74
2021/05/02 11:11:50;;;;;;;16.58;14.27;;;11.10;99.90;;;;;;5020781;28;20017;-74
2021/05/02 11:14:25;;;;;;;15.27;13.07;;;11.30;99.90;;;;;;5019533;28;20040;-75
2021/05/02 11:16:54;;;;;;;14.13;12.73;;;11.50;99.90;;;;;;5019183;28;20033;-76
2021/05/02 11:19:20;;;;;;;13.43;11.77;;;11.80;99.90;;;;;;5020262;28;20179;-75
2021/05/02 11:21:49;;;;;;;19.42;12.68;;;12.20;99.90;;;;;;5020385;28;20014;-75
2021/05/02 11:24:25;;;;;;;12.45;10.68;;;13.40;99.90;;;;;;5018357;28;20032;-75
2021/05/02 11:26:59;;;;;;;10.63;9.52;;;15.80;97.60;;;;;;5019360;28;20136;-76
2021/05/02 11:29:29;;;;;;;10.57;9.35;;;16.80;93.50;;;;;;5022024;28;20161;-72
2021/05/02 11:31:55;;;;;;;9.75;8.65;;;17.70;92.90;;;;;;5016212;28;20531;-75
2021/05/02 11:34:21;;;;;;;10.32;9.32;;;18.00;92.90;;;;;;5017501;28;20030;-75
2021/05/02 11:36:47;;;;;;;9.38;8.07;;;17.50;87.40;;;;;;5014465;28;20030;-75
2021/05/02 11:39:31;;;;;;;7.68;6.88;;;16.60;92.30;;;;;;5011967;28;20164;-75
2021/05/02 11:42:08;;;;;;;7.70;6.93;;;15.70;92.30;;;;;;5021935;28;20791;-75
2021/05/02 11:44:36;;;;;;;7.72;7.03;;;15.30;94.80;;;;;;5018893;28;20029;-75
2021/05/02 11:47:10;;;;;;;6.75;6.15;;;16.00;92.70;;;;;;5001646;28;20506;-75
2021/05/02 11:49:42;;;;;;;8.48;6.65;;;16.00;93.00;;;;;;4999291;28;20029;-74
2021/05/02 11:52:08;;;;;;;8.68;7.00;;;17.00;90.90;;;;;;5004362;28;20067;-75
2021/05/02 11:54:35;;;;;;;8.00;7.30;;;15.80;92.60;;;;;;5017729;28;20057;-74
2021/05/02 11:57:01;;;;;;;7.95;6.47;;;14.60;92.70;;;;;;5020720;28;20101;-73
2021/05/02 11:59:27;;;;;;;9.93;7.40;;;14.30;94.90;;;;;;5021375;28;20811;-75
2021/05/02 12:01:53;;;;;;;8.20;7.45;;;14.00;96.90;;;;;;5021588;28;20082;-74
2021/05/02 12:04:22;;;;;;;8.38;7.78;;;13.20;97.10;;;;;;4988550;28;20030;-75
2021/05/02 12:06:59;;;;;;;12.05;8.52;;;12.30;99.90;;;;;;5003183;28;20040;-74
2021/05/02 12:09:29;;;;;;;9.95;8.73;;;11.90;99.90;;;;;;5020401;28;20518;-74
2021/05/02 12:12:00;;;;;;;9.13;8.23;;;11.40;99.90;;;;;;5017951;28;20041;-73
2021/05/02 12:14:29;;;;;;;10.23;9.05;;;11.10;99.90;;;;;;5021431;28;20053;-76
2021/05/02 12:16:57;;;;;;;9.27;8.38;;;10.70;99.90;;;;;;5023248;28;20512;-75
2021/05/02 12:19:24;;;;;;;10.00;9.00;;;10.90;99.90;;;;;;5020632;28;20046;-75
2021/05/02 12:21:50;;;;;;;9.35;8.45;;;10.10;99.90;;;;;;5019897;28;20088;-75
2021/05/02 12:24:20;;;;;;;9.25;8.32;;;9.80;99.90;;;;;;5016892;28;20041;-75
2021/05/02 12:27:00;;;;;;;11.35;10.00;;;9.20;99.90;;;;;;5002148;28;20044;-76
2021/05/02 12:29:31;;;;;;;17.38;10.50;;;9.00;99.90;;;;;;5000087;28;20372;-74
2021/05/02 12:32:11;;;;;;;12.13;10.93;;;8.70;99.90;;;;;;5031415;28;20032;-74
2021/05/02 12:34:41;;;;;;;14.73;11.32;;;8.50;99.90;;;;;;5022230;28;20076;-74
2021/05/02 12:37:12;;;;;;;14.00;11.40;;;8.60;99.90;;;;;;5023320;28;20029;-74
2021/05/02 12:39:39;;;;;;;18.58;13.95;;;8.70;99.90;;;;;;5019711;28;20021;-75
2021/05/02 12:42:05;;;;;;;17.60;13.57;;;8.70;99.90;;;;;;5031304;28;20101;-75
2021/05/02 12:44:33;;;;;;;14.75;13.07;;;8.90;99.90;;;;;;5032859;28;20029;-72